Pearl Of Scandinavia — OWFU2 — position and weather

sailwx.info

Track history (hours):
 
Tides and Currents Weather Stations Pressure Air Temp Water Temp Dewpoint Dewpoint Depression Visibility Wind Speed Wind Dir Waves Ship Positions

Pearl Of Scandinavia

Last reported at 2014-Nov-22 17:33 UTC. Time now 2014-Nov-22 17:52 UTC.
Position N 56°11' E 012°30'.

Length 176.4 m; beam 34 m; draft 6.215 m.

Type: Ship. MMSI: 219945000.

Date/timePositionNaut miles runAvg speedWind from/ knotsBaromVisibWave heightAir tempDewpointWater temp
2014-Nov-22 17:33N 56°11' E 012°30'1616.3
2014-Nov-22 16:33N 55°57' E 012°43'1414.4
2014-Nov-22 15:33N 55°43' E 012°37'1 0.8
2014-Nov-22 14:33N 55°42' E 012°36'0 0.0
2014-Nov-22 13:33N 55°42' E 012°36'0 0.0
2014-Nov-22 12:33N 55°42' E 012°36'0 0.0
2014-Nov-22 11:30N 55°42' E 012°36'0 0.0
2014-Nov-22 10:33N 55°42' E 012°36'0 0.0
2014-Nov-22 09:33N 55°42' E 012°36'3 3.5
2014-Nov-22 08:34N 55°45' E 012°40'1616.2
2014-Nov-22 07:33N 56°01' E 012°40'1716.7
2014-Nov-22 06:34N 56°15' E 012°25'6813.6
2014-Nov-22 01:32N 57°20' E 011°44'1616.6
2014-Nov-22 00:33N 57°34' E 011°30'1717.1
2014-Nov-21 23:33N 57°50' E 011°19'1717.1
2014-Nov-21 22:33N 58°06' E 011°07'1716.8
2014-Nov-21 21:33N 58°22' E 010°58'1716.8
2014-Nov-21 20:33N 58°38' E 010°49'1717.0
2014-Nov-21 19:33N 58°55' E 010°43'5914.8
2014-Nov-21 15:33N 59°54' E 010°45'0 0.0
2014-Nov-21 14:29N 59°54' E 010°45'0 0.0
2014-Nov-21 13:29N 59°54' E 010°45'0 0.0
2014-Nov-21 12:26N 59°54' E 010°45'0 0.0
2014-Nov-21 11:32N 59°54' E 010°45'0 0.0
2014-Nov-21 10:32N 59°54' E 010°45'0 0.0
2014-Nov-21 09:29N 59°54' E 010°45'0 0.1
2014-Nov-21 08:34N 59°54' E 010°45'7414.8
2014-Nov-21 03:33N 58°40' E 010°46'1616.1
2014-Nov-21 02:33N 58°25' E 010°56'1616.0
2014-Nov-21 01:33N 58°09' E 011°05'1616.1
2014-Nov-21 00:34N 57°54' E 011°14'1615.9
2014-Nov-20 23:34N 57°39' E 011°23'1615.7
2014-Nov-20 22:33N 57°24' E 011°32'6416.0
2014-Nov-20 18:33N 56°25' E 012°18'1615.8
2014-Nov-20 17:33N 56°11' E 012°30'1615.6
2014-Nov-20 16:33N 55°57' E 012°43'1414.0
2014-Nov-20 15:34N 55°43' E 012°38'1 1.5
2014-Nov-20 14:33N 55°42' E 012°36'0 0.0
2014-Nov-20 13:33N 55°42' E 012°36'0 0.0
2014-Nov-20 12:33N 55°42' E 012°36'0 0.0
2014-Nov-20 11:33N 55°42' E 012°36'0 0.0
2014-Nov-20 10:33N 55°42' E 012°36'0 0.0
2014-Nov-20 09:33N 55°42' E 012°36'2 1.6
2014-Nov-20 08:33N 55°43' E 012°38'1413.9
2014-Nov-20 07:33N 55°57' E 012°43'1514.6
2014-Nov-20 06:33N 56°09' E 012°29'1615.5
2014-Nov-20 05:33N 56°24' E 012°19'6616.5
2014-Nov-20 01:33N 57°26' E 011°37'1817.6
2014-Nov-20 00:34N 57°42' E 011°25'1717.2
2014-Nov-19 23:33N 57°59' E 011°19'8 7.7
2014-Nov-19 22:34N 58°04' E 011°09'1716.7
2014-Nov-19 21:34N 58°20' E 010°60'1716.8
2014-Nov-19 20:33N 58°36' E 010°52'1716.7
2014-Nov-19 19:34N 58°53' E 010°44'6115.4
2014-Nov-19 15:33N 59°54' E 010°45'0 0.1
2014-Nov-19 14:29N 59°54' E 010°45'0 0.0
2014-Nov-19 13:26N 59°54' E 010°45'0 0.0
2014-Nov-19 12:29N 59°54' E 010°45'0 0.0
2014-Nov-19 11:32N 59°54' E 010°45'0 0.0
2014-Nov-19 10:17N 59°54' E 010°45'0 0.0
2014-Nov-19 09:32N 59°54' E 010°45'0 0.2
2014-Nov-19 08:33N 59°54' E 010°45'7414.8
2014-Nov-19 03:33N 58°40' E 010°46'1615.8
2014-Nov-19 02:33N 58°25' E 010°56'1616.0
2014-Nov-19 01:33N 58°10' E 011°06'1615.9
2014-Nov-19 00:33N 57°55' E 011°14'1615.9
2014-Nov-18 23:33N 57°40' E 011°23'1615.9
2014-Nov-18 22:33N 57°25' E 011°31'6315.9
2014-Nov-18 18:33N 56°25' E 012°10'1616.2
2014-Nov-18 17:33N 56°12' E 012°27'1717.0
2014-Nov-18 16:33N 55°57' E 012°43'1514.6
2014-Nov-18 15:33N 55°43' E 012°37'1 0.9
2014-Nov-18 14:31N 55°42' E 012°36'0 0.0
2014-Nov-18 13:31N 55°42' E 012°36'0 0.0
2014-Nov-18 12:31N 55°42' E 012°36'0 0.0
2014-Nov-18 11:31N 55°42' E 012°36'0 0.0
2014-Nov-18 10:31N 55°42' E 012°36'0 0.0
2014-Nov-18 09:31N 55°42' E 012°36'0 0.3
2014-Nov-18 08:33N 55°42' E 012°36'1110.9
2014-Nov-18 07:34N 55°53' E 012°40'1313.0
2014-Nov-18 06:33N 56°06' E 012°34'1414.0
2014-Nov-18 05:33N 56°18' E 012°23'6215.6
2014-Nov-18 01:33N 57°17' E 011°48'1615.8
2014-Nov-18 00:33N 57°30' E 011°31'1515.4
2014-Nov-17 23:33N 57°44' E 011°19'1616.1
2014-Nov-17 22:33N 57°60' E 011°11'1616.4
2014-Nov-17 21:33N 58°16' E 011°02'1616.1
2014-Nov-17 20:33N 58°31' E 010°53'1716.8
2014-Nov-17 19:33N 58°48' E 010°46'6616.6
2014-Nov-17 15:33N 59°54' E 010°42'1 1.2
2014-Nov-17 14:24N 59°54' E 010°45'0 0.0
2014-Nov-17 13:27N 59°54' E 010°45'0 0.0
2014-Nov-17 12:27N 59°54' E 010°45'0 0.0
2014-Nov-17 11:27N 59°54' E 010°45'0 0.0
2014-Nov-17 10:27N 59°54' E 010°45'0 0.0
2014-Nov-17 09:27N 59°54' E 010°45'0 0.2
2014-Nov-17 08:33N 59°54' E 010°45'7414.8
2014-Nov-17 03:33N 58°40' E 010°33'1616.3
2014-Nov-17 02:33N 58°24' E 010°41'1616.5
2014-Nov-17 01:33N 58°09' E 010°52'1616.1
2014-Nov-17 00:34N 57°54' E 011°02'1616.4
2014-Nov-16 23:33N 57°38' E 011°12'1616.0
2014-Nov-16 22:33N 57°25' E 011°29'1716.6
2014-Nov-16 21:33N 57°10' E 011°40'4916.3
2014-Nov-16 18:33N 56°24' E 012°11'1615.7
2014-Nov-16 17:33N 56°11' E 012°28'1616.2
2014-Nov-16 16:33N 55°57' E 012°43'1514.5
2014-Nov-16 15:33N 55°43' E 012°38'1 1.4
2014-Nov-16 14:31N 55°42' E 012°36'0 0.0
2014-Nov-16 13:31N 55°42' E 012°36'0 0.0
2014-Nov-16 12:31N 55°42' E 012°36'0 0.0
2014-Nov-16 11:31N 55°42' E 012°36'0 0.0
2014-Nov-16 10:31N 55°42' E 012°36'0 0.0
2014-Nov-16 09:31N 55°42' E 012°36'0 0.1
2014-Nov-16 08:33N 55°42' E 012°36'1010.3
2014-Nov-16 07:33N 55°52' E 012°41'1313.0
2014-Nov-16 06:33N 56°05' E 012°36'1515.1
2014-Nov-16 05:33N 56°18' E 012°23'6516.2
2014-Nov-16 01:33N 57°20' E 011°45'1616.0
2014-Nov-16 00:34N 57°33' E 011°30'1616.4
2014-Nov-15 23:33N 57°49' E 011°18'1616.3
2014-Nov-15 22:34N 58°04' E 011°09'1615.9
2014-Nov-15 21:33N 58°20' E 011°01'1616.3
2014-Nov-15 20:34N 58°35' E 010°53'1716.6
2014-Nov-15 19:33N 58°51' E 010°44'6315.7
2014-Nov-15 15:33N 59°54' E 010°43'1 0.9
2014-Nov-15 14:30N 59°54' E 010°45'0 0.0
2014-Nov-15 13:27N 59°54' E 010°45'0 0.0
2014-Nov-15 12:27N 59°54' E 010°45'0 0.0
2014-Nov-15 11:33N 59°54' E 010°45'0 0.0
2014-Nov-15 10:30N 59°54' E 010°45'0 0.0
2014-Nov-15 09:33N 59°54' E 010°45'0 0.1
2014-Nov-15 08:34N 59°54' E 010°45'7414.8
2014-Nov-15 03:32N 58°40' E 010°47'1616.1
2014-Nov-15 02:33N 58°25' E 010°56'1616.1
2014-Nov-15 01:33N 58°09' E 011°05'1716.5
2014-Nov-15 00:33N 57°53' E 011°14'1616.1
2014-Nov-14 23:33N 57°38' E 011°23'1616.5
2014-Nov-14 22:33N 57°22' E 011°32'1716.7
2014-Nov-14 21:33N 57°06' E 011°42'3816.2
2014-Nov-14 19:12N 56°30' E 012°03'1015.5
2014-Nov-14 18:33N 56°22' E 012°13'1615.7
2014-Nov-14 17:33N 56°09' E 012°30'1615.8
2014-Nov-14 16:33N 55°56' E 012°44'1414.0
2014-Nov-14 15:33N 55°42' E 012°36'0 0.1
2014-Nov-14 14:33N 55°42' E 012°36'0 0.0
2014-Nov-14 12:33N 55°42' E 012°36'0 0.0
2014-Nov-14 11:33N 55°42' E 012°36'0 0.0
2014-Nov-14 10:33N 55°42' E 012°36'0 0.0
2014-Nov-14 09:33N 55°42' E 012°36'0 0.1
2014-Nov-14 08:33N 55°42' E 012°36'1010.4
2014-Nov-14 07:33N 55°52' E 012°40'1313.2
2014-Nov-14 06:33N 56°05' E 012°35'1514.7
2014-Nov-14 05:33N 56°18' E 012°23'6516.3
2014-Nov-14 01:33N 57°20' E 011°45'1616.2
2014-Nov-14 00:33N 57°34' E 011°30'1716.5
2014-Nov-13 23:33N 57°49' E 011°17'1616.4
2014-Nov-13 22:33N 58°05' E 011°08'1616.1
2014-Nov-13 21:33N 58°20' E 010°60'1616.3
2014-Nov-13 20:33N 58°36' E 010°51'1716.6
2014-Nov-13 19:33N 58°52' E 010°44'1717.2
2014-Nov-13 18:33N 59°09' E 010°39'1817.7
2014-Nov-13 17:33N 59°27' E 010°33'1915.4
2014-Nov-13 16:19N 59°46' E 010°33'1013.0
2014-Nov-13 15:32N 59°54' E 010°45'0 0.0
2014-Nov-13 14:25N 59°54' E 010°45'0 0.0
2014-Nov-13 13:25N 59°54' E 010°45'0 0.0
2014-Nov-13 12:22N 59°54' E 010°45'0 0.0
2014-Nov-13 11:25N 59°54' E 010°45'0 0.0
2014-Nov-13 10:28N 59°54' E 010°45'0 0.0
2014-Nov-13 09:16N 59°54' E 010°45'0 0.3
2014-Nov-13 08:33N 59°54' E 010°44'3113.8
2014-Nov-13 06:17N 59°23' E 010°35'1216.0
2014-Nov-13 05:33N 59°12' E 010°39'1615.9
2014-Nov-13 04:33N 58°56' E 010°43'1616.0
2014-Nov-13 03:33N 58°40' E 010°46'1616.0
2014-Nov-13 02:34N 58°25' E 010°56'1616.4
2014-Nov-13 01:33N 58°09' E 011°05'1716.6
2014-Nov-13 00:34N 57°53' E 011°15'1616.0
2014-Nov-12 23:34N 57°38' E 011°24'1616.0
2014-Nov-12 22:34N 57°23' E 011°33'1616.1
2014-Nov-12 21:33N 57°07' E 011°42'4615.4
2014-Nov-12 18:34N 56°26' E 012°18'  
Track history (hours):
 
Tides and Currents Weather Stations Pressure Air Temp Water Temp Dewpoint Dewpoint Depression Visibility Wind Speed Wind Dir Waves Ship Positions

Pearl Of Scandinavia

Last reported at 2014-Nov-22 17:33 UTC. Time now 2014-Nov-22 17:52 UTC.
Position N 56°11' E 012°30'.

Length 176.4 m; beam 34 m; draft 6.215 m.

Type: Ship. MMSI: 219945000.

Date/timePositionNaut miles runAvg speedWind from/ knotsBaromVisibWave heightAir tempDewpointWater temp
2014-Nov-22 17:33N 56°11' E 012°30'1616.3
2014-Nov-22 16:33N 55°57' E 012°43'1414.4
2014-Nov-22 15:33N 55°43' E 012°37'1 0.8
2014-Nov-22 14:33N 55°42' E 012°36'0 0.0
2014-Nov-22 13:33N 55°42' E 012°36'0 0.0
2014-Nov-22 12:33N 55°42' E 012°36'0 0.0
2014-Nov-22 11:30N 55°42' E 012°36'0 0.0
2014-Nov-22 10:33N 55°42' E 012°36'0 0.0
2014-Nov-22 09:33N 55°42' E 012°36'3 3.5
2014-Nov-22 08:34N 55°45' E 012°40'1616.2
2014-Nov-22 07:33N 56°01' E 012°40'1716.7
2014-Nov-22 06:34N 56°15' E 012°25'6813.6
2014-Nov-22 01:32N 57°20' E 011°44'1616.6
2014-Nov-22 00:33N 57°34' E 011°30'1717.1
2014-Nov-21 23:33N 57°50' E 011°19'1717.1
2014-Nov-21 22:33N 58°06' E 011°07'1716.8
2014-Nov-21 21:33N 58°22' E 010°58'1716.8
2014-Nov-21 20:33N 58°38' E 010°49'1717.0
2014-Nov-21 19:33N 58°55' E 010°43'5914.8
2014-Nov-21 15:33N 59°54' E 010°45'0 0.0
2014-Nov-21 14:29N 59°54' E 010°45'0 0.0
2014-Nov-21 13:29N 59°54' E 010°45'0 0.0
2014-Nov-21 12:26N 59°54' E 010°45'0 0.0
2014-Nov-21 11:32N 59°54' E 010°45'0 0.0
2014-Nov-21 10:32N 59°54' E 010°45'0 0.0
2014-Nov-21 09:29N 59°54' E 010°45'0 0.1
2014-Nov-21 08:34N 59°54' E 010°45'7414.8
2014-Nov-21 03:33N 58°40' E 010°46'1616.1
2014-Nov-21 02:33N 58°25' E 010°56'1616.0
2014-Nov-21 01:33N 58°09' E 011°05'1616.1
2014-Nov-21 00:34N 57°54' E 011°14'1615.9
2014-Nov-20 23:34N 57°39' E 011°23'1615.7
2014-Nov-20 22:33N 57°24' E 011°32'6416.0
2014-Nov-20 18:33N 56°25' E 012°18'1615.8
2014-Nov-20 17:33N 56°11' E 012°30'1615.6
2014-Nov-20 16:33N 55°57' E 012°43'1414.0
2014-Nov-20 15:34N 55°43' E 012°38'1 1.5
2014-Nov-20 14:33N 55°42' E 012°36'0 0.0
2014-Nov-20 13:33N 55°42' E 012°36'0 0.0
2014-Nov-20 12:33N 55°42' E 012°36'0 0.0
2014-Nov-20 11:33N 55°42' E 012°36'0 0.0
2014-Nov-20 10:33N 55°42' E 012°36'0 0.0
2014-Nov-20 09:33N 55°42' E 012°36'2 1.6
2014-Nov-20 08:33N 55°43' E 012°38'1413.9
2014-Nov-20 07:33N 55°57' E 012°43'1514.6
2014-Nov-20 06:33N 56°09' E 012°29'1615.5
2014-Nov-20 05:33N 56°24' E 012°19'6616.5
2014-Nov-20 01:33N 57°26' E 011°37'1817.6
2014-Nov-20 00:34N 57°42' E 011°25'1717.2
2014-Nov-19 23:33N 57°59' E 011°19'8 7.7
2014-Nov-19 22:34N 58°04' E 011°09'1716.7
2014-Nov-19 21:34N 58°20' E 010°60'1716.8
2014-Nov-19 20:33N 58°36' E 010°52'1716.7
2014-Nov-19 19:34N 58°53' E 010°44'6115.4
2014-Nov-19 15:33N 59°54' E 010°45'0 0.1
2014-Nov-19 14:29N 59°54' E 010°45'0 0.0
2014-Nov-19 13:26N 59°54' E 010°45'0 0.0
2014-Nov-19 12:29N 59°54' E 010°45'0 0.0
2014-Nov-19 11:32N 59°54' E 010°45'0 0.0
2014-Nov-19 10:17N 59°54' E 010°45'0 0.0
2014-Nov-19 09:32N 59°54' E 010°45'0 0.2
2014-Nov-19 08:33N 59°54' E 010°45'7414.8
2014-Nov-19 03:33N 58°40' E 010°46'1615.8
2014-Nov-19 02:33N 58°25' E 010°56'1616.0
2014-Nov-19 01:33N 58°10' E 011°06'1615.9
2014-Nov-19 00:33N 57°55' E 011°14'1615.9
2014-Nov-18 23:33N 57°40' E 011°23'1615.9
2014-Nov-18 22:33N 57°25' E 011°31'6315.9
2014-Nov-18 18:33N 56°25' E 012°10'1616.2
2014-Nov-18 17:33N 56°12' E 012°27'1717.0
2014-Nov-18 16:33N 55°57' E 012°43'1514.6
2014-Nov-18 15:33N 55°43' E 012°37'1 0.9
2014-Nov-18 14:31N 55°42' E 012°36'0 0.0
2014-Nov-18 13:31N 55°42' E 012°36'0 0.0
2014-Nov-18 12:31N 55°42' E 012°36'0 0.0
2014-Nov-18 11:31N 55°42' E 012°36'0 0.0
2014-Nov-18 10:31N 55°42' E 012°36'0 0.0
2014-Nov-18 09:31N 55°42' E 012°36'0 0.3
2014-Nov-18 08:33N 55°42' E 012°36'1110.9
2014-Nov-18 07:34N 55°53' E 012°40'1313.0
2014-Nov-18 06:33N 56°06' E 012°34'1414.0
2014-Nov-18 05:33N 56°18' E 012°23'6215.6
2014-Nov-18 01:33N 57°17' E 011°48'1615.8
2014-Nov-18 00:33N 57°30' E 011°31'1515.4
2014-Nov-17 23:33N 57°44' E 011°19'1616.1
2014-Nov-17 22:33N 57°60' E 011°11'1616.4
2014-Nov-17 21:33N 58°16' E 011°02'1616.1
2014-Nov-17 20:33N 58°31' E 010°53'1716.8
2014-Nov-17 19:33N 58°48' E 010°46'6616.6
2014-Nov-17 15:33N 59°54' E 010°42'1 1.2
2014-Nov-17 14:24N 59°54' E 010°45'0 0.0
2014-Nov-17 13:27N 59°54' E 010°45'0 0.0
2014-Nov-17 12:27N 59°54' E 010°45'0 0.0
2014-Nov-17 11:27N 59°54' E 010°45'0 0.0
2014-Nov-17 10:27N 59°54' E 010°45'0 0.0
2014-Nov-17 09:27N 59°54' E 010°45'0 0.2
2014-Nov-17 08:33N 59°54' E 010°45'7414.8
2014-Nov-17 03:33N 58°40' E 010°33'1616.3
2014-Nov-17 02:33N 58°24' E 010°41'1616.5
2014-Nov-17 01:33N 58°09' E 010°52'1616.1
2014-Nov-17 00:34N 57°54' E 011°02'1616.4
2014-Nov-16 23:33N 57°38' E 011°12'1616.0
2014-Nov-16 22:33N 57°25' E 011°29'1716.6
2014-Nov-16 21:33N 57°10' E 011°40'4916.3
2014-Nov-16 18:33N 56°24' E 012°11'1615.7
2014-Nov-16 17:33N 56°11' E 012°28'1616.2
2014-Nov-16 16:33N 55°57' E 012°43'1514.5
2014-Nov-16 15:33N 55°43' E 012°38'1 1.4
2014-Nov-16 14:31N 55°42' E 012°36'0 0.0
2014-Nov-16 13:31N 55°42' E 012°36'0 0.0
2014-Nov-16 12:31N 55°42' E 012°36'0 0.0
2014-Nov-16 11:31N 55°42' E 012°36'0 0.0
2014-Nov-16 10:31N 55°42' E 012°36'0 0.0
2014-Nov-16 09:31N 55°42' E 012°36'0 0.1
2014-Nov-16 08:33N 55°42' E 012°36'1010.3
2014-Nov-16 07:33N 55°52' E 012°41'1313.0
2014-Nov-16 06:33N 56°05' E 012°36'1515.1
2014-Nov-16 05:33N 56°18' E 012°23'6516.2
2014-Nov-16 01:33N 57°20' E 011°45'1616.0
2014-Nov-16 00:34N 57°33' E 011°30'1616.4
2014-Nov-15 23:33N 57°49' E 011°18'1616.3
2014-Nov-15 22:34N 58°04' E 011°09'1615.9
2014-Nov-15 21:33N 58°20' E 011°01'1616.3
2014-Nov-15 20:34N 58°35' E 010°53'1716.6
2014-Nov-15 19:33N 58°51' E 010°44'6315.7
2014-Nov-15 15:33N 59°54' E 010°43'1 0.9
2014-Nov-15 14:30N 59°54' E 010°45'0 0.0
2014-Nov-15 13:27N 59°54' E 010°45'0 0.0
2014-Nov-15 12:27N 59°54' E 010°45'0 0.0
2014-Nov-15 11:33N 59°54' E 010°45'0 0.0
2014-Nov-15 10:30N 59°54' E 010°45'0 0.0
2014-Nov-15 09:33N 59°54' E 010°45'0 0.1
2014-Nov-15 08:34N 59°54' E 010°45'7414.8
2014-Nov-15 03:32N 58°40' E 010°47'1616.1
2014-Nov-15 02:33N 58°25' E 010°56'1616.1
2014-Nov-15 01:33N 58°09' E 011°05'1716.5
2014-Nov-15 00:33N 57°53' E 011°14'1616.1
2014-Nov-14 23:33N 57°38' E 011°23'1616.5
2014-Nov-14 22:33N 57°22' E 011°32'1716.7
2014-Nov-14 21:33N 57°06' E 011°42'3816.2
2014-Nov-14 19:12N 56°30' E 012°03'1015.5
2014-Nov-14 18:33N 56°22' E 012°13'1615.7
2014-Nov-14 17:33N 56°09' E 012°30'1615.8
2014-Nov-14 16:33N 55°56' E 012°44'1414.0
2014-Nov-14 15:33N 55°42' E 012°36'0 0.1
2014-Nov-14 14:33N 55°42' E 012°36'0 0.0
2014-Nov-14 12:33N 55°42' E 012°36'0 0.0
2014-Nov-14 11:33N 55°42' E 012°36'0 0.0
2014-Nov-14 10:33N 55°42' E 012°36'0 0.0
2014-Nov-14 09:33N 55°42' E 012°36'0 0.1
2014-Nov-14 08:33N 55°42' E 012°36'1010.4
2014-Nov-14 07:33N 55°52' E 012°40'1313.2
2014-Nov-14 06:33N 56°05' E 012°35'1514.7
2014-Nov-14 05:33N 56°18' E 012°23'6516.3
2014-Nov-14 01:33N 57°20' E 011°45'1616.2
2014-Nov-14 00:33N 57°34' E 011°30'1716.5
2014-Nov-13 23:33N 57°49' E 011°17'1616.4
2014-Nov-13 22:33N 58°05' E 011°08'1616.1
2014-Nov-13 21:33N 58°20' E 010°60'1616.3
2014-Nov-13 20:33N 58°36' E 010°51'1716.6
2014-Nov-13 19:33N 58°52' E 010°44'1717.2
2014-Nov-13 18:33N 59°09' E 010°39'1817.7
2014-Nov-13 17:33N 59°27' E 010°33'1915.4
2014-Nov-13 16:19N 59°46' E 010°33'1013.0
2014-Nov-13 15:32N 59°54' E 010°45'0 0.0
2014-Nov-13 14:25N 59°54' E 010°45'0 0.0
2014-Nov-13 13:25N 59°54' E 010°45'0 0.0
2014-Nov-13 12:22N 59°54' E 010°45'0 0.0
2014-Nov-13 11:25N 59°54' E 010°45'0 0.0
2014-Nov-13 10:28N 59°54' E 010°45'0 0.0
2014-Nov-13 09:16N 59°54' E 010°45'0 0.3
2014-Nov-13 08:33N 59°54' E 010°44'3113.8
2014-Nov-13 06:17N 59°23' E 010°35'1216.0
2014-Nov-13 05:33N 59°12' E 010°39'1615.9
2014-Nov-13 04:33N 58°56' E 010°43'1616.0
2014-Nov-13 03:33N 58°40' E 010°46'1616.0
2014-Nov-13 02:34N 58°25' E 010°56'1616.4
2014-Nov-13 01:33N 58°09' E 011°05'1716.6
2014-Nov-13 00:34N 57°53' E 011°15'1616.0
2014-Nov-12 23:34N 57°38' E 011°24'1616.0
2014-Nov-12 22:34N 57°23' E 011°33'1616.1
2014-Nov-12 21:33N 57°07' E 011°42'4615.4
2014-Nov-12 18:34N 56°26' E 012°18'  

Dump ship's entire track history